Time;durP1;ratioP1;P1;durP2;ratioP2;P2;SDS_P1;SDS_P2;PMS_P1;PMS_P2;Temp;Humidity;BMP_temperature;BMP_pressure;BME280_temperature;BME280_humidity;BME280_pressure;Samples;Min_cycle;Max_cycle;Signal;HPM_P1;HPM_P2
2023/12/11 00:00:10;;;;;;;54.17;9.98;;;8.00;99.90;;;;;;4998483;28;20053;-80
2023/12/11 00:02:36;;;;;;;52.85;10.13;;;8.00;99.90;;;;;;4998471;28;20042;-78
2023/12/11 00:05:02;;;;;;;53.80;10.25;;;8.00;99.90;;;;;;4997347;28;20389;-78
2023/12/11 00:07:28;;;;;;;59.08;10.27;;;8.00;99.90;;;;;;4999988;28;20280;-78
2023/12/11 00:09:53;;;;;;;50.15;9.45;;;8.00;99.90;;;;;;5017472;28;20045;-78
2023/12/11 00:12:19;;;;;;;53.08;9.25;;;8.00;99.90;;;;;;5012638;28;20450;-79
2023/12/11 00:14:44;;;;;;;51.42;9.77;;;8.00;99.90;;;;;;5008928;28;20041;-79
2023/12/11 00:17:10;;;;;;;48.20;9.77;;;8.00;99.90;;;;;;5010135;28;20045;-79
2023/12/11 00:19:35;;;;;;;44.28;9.48;;;7.90;99.90;;;;;;4981379;28;20048;-79
2023/12/11 00:22:01;;;;;;;51.22;10.38;;;7.90;99.90;;;;;;4980982;28;20057;-79
2023/12/11 00:24:27;;;;;;;47.85;10.02;;;7.90;99.90;;;;;;4980747;28;20038;-80
2023/12/11 00:26:52;;;;;;;46.90;8.45;;;8.00;99.90;;;;;;4992834;28;20088;-79
2023/12/11 00:29:18;;;;;;;45.00;8.85;;;8.00;99.90;;;;;;4995853;28;20121;-79
2023/12/11 00:31:43;;;;;;;42.38;9.20;;;8.00;99.90;;;;;;4997093;28;20034;-79
2023/12/11 00:34:09;;;;;;;43.55;9.45;;;8.10;99.90;;;;;;4997227;28;20064;-80
2023/12/11 00:36:34;;;;;;;42.22;8.55;;;8.10;99.90;;;;;;4996881;28;20035;-78
2023/12/11 00:39:00;;;;;;;44.97;8.18;;;8.10;99.90;;;;;;4999768;28;20033;-79
2023/12/11 00:41:26;;;;;;;46.10;8.82;;;8.10;99.90;;;;;;4994299;28;20092;-79
2023/12/11 00:43:51;;;;;;;44.67;8.52;;;8.10;99.90;;;;;;4994283;28;20406;-79
2023/12/11 00:46:21;;;;;;;48.33;9.35;;;8.10;99.90;;;;;;4996732;28;20467;-79
2023/12/11 00:48:47;;;;;;;43.33;8.35;;;8.00;99.90;;;;;;4999211;28;20065;-79
2023/12/11 00:51:20;;;;;;;45.95;9.68;;;8.00;99.90;;;;;;5016230;28;20076;-79
2023/12/11 00:53:46;;;;;;;46.13;8.35;;;8.00;99.90;;;;;;5015229;28;20068;-79
2023/12/11 00:56:13;;;;;;;46.75;8.55;;;7.90;99.90;;;;;;5010597;28;20407;-79
2023/12/11 00:58:38;;;;;;;47.53;8.57;;;7.90;99.90;;;;;;4985767;28;20038;-79
2023/12/11 01:01:04;;;;;;;48.05;8.90;;;7.90;99.90;;;;;;5007957;28;20033;-79
2023/12/11 01:03:30;;;;;;;44.22;9.25;;;7.80;99.90;;;;;;4996151;28;20096;-80
2023/12/11 01:05:55;;;;;;;50.90;8.98;;;7.80;99.90;;;;;;4995189;28;20095;-79
2023/12/11 01:08:21;;;;;;;48.20;9.23;;;7.80;99.90;;;;;;4991871;28;20519;-79
2023/12/11 01:10:47;;;;;;;50.55;10.35;;;7.80;99.90;;;;;;5015311;28;20091;-79
2023/12/11 01:13:12;;;;;;;47.25;9.48;;;7.90;99.90;;;;;;5007608;28;20473;-78
2023/12/11 01:15:38;;;;;;;53.35;10.82;;;7.90;99.90;;;;;;4996333;28;20034;-79
2023/12/11 01:18:03;;;;;;;49.05;10.15;;;8.00;99.90;;;;;;4999252;28;20217;-79
2023/12/11 01:20:29;;;;;;;55.47;10.07;;;8.00;99.90;;;;;;4998745;28;20041;-78
2023/12/11 01:22:55;;;;;;;47.22;9.68;;;8.10;99.90;;;;;;5010808;28;20042;-81
2023/12/11 01:25:20;;;;;;;49.63;10.82;;;8.20;99.90;;;;;;5007453;28;20511;-80
2023/12/11 01:27:46;;;;;;;57.45;10.73;;;8.20;99.90;;;;;;5005938;28;20045;-79
2023/12/11 01:30:11;;;;;;;58.53;11.27;;;8.30;99.90;;;;;;4995930;28;20042;-79
2023/12/11 01:32:37;;;;;;;50.78;10.73;;;8.30;99.90;;;;;;5011598;28;20756;-79
2023/12/11 01:35:03;;;;;;;55.22;10.95;;;8.40;99.90;;;;;;4996906;28;20042;-79
2023/12/11 01:37:29;;;;;;;51.50;10.95;;;8.40;99.90;;;;;;4995544;28;20120;-80
2023/12/11 01:39:54;;;;;;;53.47;10.23;;;8.40;99.90;;;;;;4995646;28;20038;-79
2023/12/11 01:42:20;;;;;;;57.15;10.88;;;8.40;99.90;;;;;;5012249;28;20169;-79
2023/12/11 01:44:45;;;;;;;57.53;10.35;;;8.40;99.90;;;;;;4995573;28;20048;-80
2023/12/11 01:47:11;;;;;;;54.75;10.95;;;8.40;99.90;;;;;;4994182;28;20056;-79
2023/12/11 01:49:38;;;;;;;49.33;10.27;;;8.40;99.90;;;;;;5011804;28;20117;-79
2023/12/11 01:52:05;;;;;;;62.72;11.43;;;8.50;99.90;;;;;;4995808;28;20058;-80
2023/12/11 01:54:31;;;;;;;59.33;11.27;;;8.50;99.90;;;;;;5011741;28;20068;-79
2023/12/11 01:56:57;;;;;;;57.70;10.90;;;8.50;99.90;;;;;;5009655;28;20073;-79
2023/12/11 01:59:22;;;;;;;59.35;10.75;;;8.50;99.90;;;;;;4995299;28;20044;-79
2023/12/11 02:01:49;;;;;;;49.97;10.88;;;8.50;99.90;;;;;;5009410;28;20064;-79
2023/12/11 02:04:15;;;;;;;55.33;10.85;;;8.50;99.90;;;;;;4991078;28;20069;-79
2023/12/11 02:06:41;;;;;;;57.42;12.18;;;8.50;99.90;;;;;;4992667;28;20038;-79
2023/12/11 02:09:08;;;;;;;55.83;11.10;;;8.50;99.90;;;;;;5011735;28;20084;-79
2023/12/11 02:11:33;;;;;;;58.90;11.10;;;8.60;99.90;;;;;;4996369;28;20039;-79
2023/12/11 02:13:59;;;;;;;49.03;10.38;;;8.60;99.90;;;;;;4988442;28;20044;-79
2023/12/11 02:16:24;;;;;;;56.50;10.77;;;8.60;99.90;;;;;;5011589;28;20030;-79
2023/12/11 02:18:50;;;;;;;59.25;12.13;;;8.60;99.90;;;;;;4995340;28;20091;-80
2023/12/11 02:21:16;;;;;;;56.70;9.95;;;8.60;99.90;;;;;;5013719;28;20122;-79
2023/12/11 02:23:49;;;;;;;56.58;11.23;;;8.70;99.90;;;;;;4986455;28;20053;-79
2023/12/11 02:26:16;;;;;;;60.70;11.85;;;8.70;99.90;;;;;;4994248;28;20061;-79
2023/12/11 02:28:42;;;;;;;61.67;11.40;;;8.70;99.90;;;;;;5002824;28;20046;-79
2023/12/11 02:31:08;;;;;;;57.17;12.10;;;8.70;99.90;;;;;;5009671;28;20511;-79
2023/12/11 02:33:33;;;;;;;58.40;10.57;;;8.80;99.90;;;;;;4988207;28;20072;-79
2023/12/11 02:35:59;;;;;;;58.78;11.57;;;8.80;99.90;;;;;;4998280;28;20033;-80
2023/12/11 02:38:25;;;;;;;57.92;10.30;;;8.80;99.90;;;;;;5014298;28;20503;-80
2023/12/11 02:40:50;;;;;;;64.72;11.57;;;8.80;99.90;;;;;;5011807;28;20037;-79
2023/12/11 02:43:16;;;;;;;57.72;11.88;;;8.90;99.90;;;;;;4992003;28;20042;-79
2023/12/11 02:45:42;;;;;;;59.65;11.65;;;8.90;99.90;;;;;;4994472;28;20064;-79
2023/12/11 02:48:08;;;;;;;59.33;11.30;;;8.90;99.90;;;;;;5011026;28;20121;-79
2023/12/11 02:50:34;;;;;;;57.45;11.23;;;8.90;99.90;;;;;;4994532;28;20072;-79
2023/12/11 02:53:01;;;;;;;58.33;11.63;;;8.90;99.90;;;;;;4998750;28;20568;-79
2023/12/11 02:55:27;;;;;;;58.22;11.80;;;8.90;99.90;;;;;;5010417;28;20053;-80
2023/12/11 02:57:58;;;;;;;51.25;11.43;;;8.90;99.90;;;;;;4994122;28;20038;-79
2023/12/11 03:00:24;;;;;;;57.20;11.52;;;8.90;99.90;;;;;;4983297;28;20101;-80
2023/12/11 03:02:49;;;;;;;58.58;11.07;;;8.90;99.90;;;;;;4985079;28;20037;-80
2023/12/11 03:05:15;;;;;;;62.22;11.77;;;8.90;99.90;;;;;;4988624;28;20095;-79
2023/12/11 03:07:41;;;;;;;60.10;11.63;;;8.90;99.90;;;;;;4994389;28;20345;-79
2023/12/11 03:10:07;;;;;;;74.95;12.85;;;8.90;99.90;;;;;;4994449;28;20045;-78
2023/12/11 03:12:32;;;;;;;69.13;13.52;;;8.90;99.90;;;;;;5003114;28;20091;-78
2023/12/11 03:14:58;;;;;;;80.10;13.27;;;8.90;99.90;;;;;;5010315;28;20112;-78
2023/12/11 03:17:23;;;;;;;75.72;13.70;;;8.90;99.90;;;;;;4995942;28;20488;-81
2023/12/11 03:19:49;;;;;;;79.00;14.52;;;8.90;99.90;;;;;;4998351;28;20432;-79
2023/12/11 03:22:15;;;;;;;74.95;12.60;;;8.90;99.90;;;;;;4988880;28;20493;-78
2023/12/11 03:24:40;;;;;;;78.25;13.10;;;8.80;99.90;;;;;;5009324;28;20041;-78
2023/12/11 03:27:06;;;;;;;72.97;12.55;;;8.80;99.90;;;;;;4998138;28;20586;-79
2023/12/11 03:29:31;;;;;;;69.05;13.05;;;8.80;99.90;;;;;;5009112;28;20037;-79
2023/12/11 03:31:57;;;;;;;63.95;12.43;;;8.80;99.90;;;;;;4987933;28;20096;-78
2023/12/11 03:34:22;;;;;;;66.63;13.55;;;8.80;99.90;;;;;;5001221;28;20041;-78
2023/12/11 03:36:48;;;;;;;54.45;11.93;;;8.80;99.90;;;;;;5001541;28;20042;-78
2023/12/11 03:39:14;;;;;;;63.47;14.23;;;8.80;99.90;;;;;;4994103;28;20040;-78
2023/12/11 03:41:40;;;;;;;86.22;14.77;;;8.80;99.90;;;;;;4996001;28;20047;-77
2023/12/11 03:44:05;;;;;;;57.97;11.85;;;8.80;99.90;;;;;;5016833;28;20116;-78
2023/12/11 03:46:31;;;;;;;62.22;12.45;;;8.80;99.90;;;;;;5017722;28;20041;-79
2023/12/11 03:48:56;;;;;;;62.55;12.10;;;8.70;99.90;;;;;;4992384;28;20038;-78
2023/12/11 03:51:22;;;;;;;54.40;10.82;;;8.70;99.90;;;;;;4997383;28;20052;-78
2023/12/11 03:53:47;;;;;;;45.75;9.25;;;8.60;99.90;;;;;;5006554;28;20084;-78
2023/12/11 03:56:13;;;;;;;51.55;10.15;;;8.60;99.90;;;;;;4987217;28;20045;-78
2023/12/11 03:58:38;;;;;;;52.45;10.07;;;8.60;99.90;;;;;;4981456;28;20499;-78
2023/12/11 04:01:04;;;;;;;49.08;10.60;;;8.60;99.90;;;;;;4981846;28;20519;-78
2023/12/11 04:03:31;;;;;;;46.75;9.77;;;8.70;99.90;;;;;;4989990;28;20388;-78
2023/12/11 04:05:57;;;;;;;50.67;9.93;;;8.70;99.90;;;;;;5000707;28;20128;-78
2023/12/11 04:08:22;;;;;;;55.40;10.15;;;8.60;99.90;;;;;;4990070;28;20631;-78
2023/12/11 04:10:48;;;;;;;58.40;11.52;;;8.70;99.90;;;;;;4999973;28;20037;-78
2023/12/11 04:13:14;;;;;;;65.07;10.98;;;8.60;99.90;;;;;;4993742;28;20515;-78
2023/12/11 04:15:40;;;;;;;56.90;10.23;;;8.60;99.90;;;;;;4997413;28;20124;-78
2023/12/11 04:18:05;;;;;;;57.22;10.93;;;8.60;99.90;;;;;;5006711;28;20478;-79
2023/12/11 04:20:31;;;;;;;48.55;10.90;;;8.70;99.90;;;;;;5013469;28;20048;-78
2023/12/11 04:22:56;;;;;;;57.63;10.80;;;8.70;99.90;;;;;;4981140;28;20042;-78
2023/12/11 04:25:22;;;;;;;57.08;10.45;;;8.70;99.90;;;;;;4997377;28;20499;-78
2023/12/11 04:27:47;;;;;;;55.75;9.80;;;8.70;99.90;;;;;;4980676;28;20076;-78
2023/12/11 04:30:13;;;;;;;57.78;9.93;;;8.70;99.90;;;;;;4996041;28;20041;-78
2023/12/11 04:32:39;;;;;;;54.70;9.60;;;8.70;99.90;;;;;;4987577;28;20511;-78
2023/12/11 04:35:05;;;;;;;59.53;11.13;;;8.60;99.90;;;;;;5009529;28;20073;-78
2023/12/11 04:37:30;;;;;;;58.75;9.73;;;8.60;99.90;;;;;;4991339;28;20090;-78
2023/12/11 04:39:56;;;;;;;53.45;9.63;;;8.60;99.90;;;;;;4997118;28;20045;-79
2023/12/11 04:42:21;;;;;;;54.05;10.00;;;8.60;99.90;;;;;;4998604;28;20098;-79
2023/12/11 04:44:47;;;;;;;61.90;10.35;;;8.50;99.90;;;;;;5002962;28;20148;-78
2023/12/11 04:47:12;;;;;;;68.28;11.30;;;8.50;99.90;;;;;;4996301;28;20522;-78
2023/12/11 04:49:38;;;;;;;55.95;10.82;;;8.40;99.90;;;;;;5016391;28;20514;-78
2023/12/11 04:52:04;;;;;;;57.10;10.75;;;8.40;99.90;;;;;;4984552;28;20172;-78
2023/12/11 04:54:29;;;;;;;50.95;9.57;;;8.40;99.90;;;;;;4996113;28;20115;-78
2023/12/11 04:56:55;;;;;;;58.38;10.38;;;8.30;99.90;;;;;;5015121;28;20042;-81
2023/12/11 04:59:20;;;;;;;57.00;10.45;;;8.30;99.90;;;;;;4992904;28;20038;-79
2023/12/11 05:01:46;;;;;;;57.83;10.50;;;8.30;99.90;;;;;;5011350;28;20041;-78
2023/12/11 05:04:11;;;;;;;63.42;10.70;;;8.30;99.90;;;;;;4998917;28;20741;-78
2023/12/11 05:06:37;;;;;;;50.40;9.90;;;8.30;99.90;;;;;;5010804;28;20034;-78
2023/12/11 05:09:02;;;;;;;60.10;11.15;;;8.30;99.90;;;;;;5000080;28;20096;-78
2023/12/11 05:11:28;;;;;;;65.75;11.63;;;8.40;99.90;;;;;;4987700;28;20041;-78
2023/12/11 05:13:53;;;;;;;61.75;10.98;;;8.40;99.90;;;;;;4972039;28;20046;-78
2023/12/11 05:16:19;;;;;;;55.25;10.90;;;8.50;99.90;;;;;;4987467;28;20037;-78
2023/12/11 05:18:44;;;;;;;71.45;10.20;;;8.50;99.90;;;;;;5012394;28;20081;-77
2023/12/11 05:21:10;;;;;;;65.90;11.52;;;8.50;99.90;;;;;;4998342;28;20038;-78
2023/12/11 05:23:36;;;;;;;66.53;11.60;;;8.60;99.90;;;;;;5008304;28;20041;-78
2023/12/11 05:26:02;;;;;;;66.53;9.93;;;8.60;99.90;;;;;;5012166;28;20077;-78
2023/12/11 05:28:28;;;;;;;84.53;12.40;;;8.60;99.90;;;;;;4995893;28;20102;-78
2023/12/11 05:30:53;;;;;;;57.65;10.43;;;8.60;99.90;;;;;;5009183;28;20045;-78
2023/12/11 05:33:19;;;;;;;65.30;10.65;;;8.50;99.90;;;;;;4987649;28;20099;-78
2023/12/11 05:35:44;;;;;;;62.88;11.10;;;8.50;99.90;;;;;;4999460;28;20048;-78
2023/12/11 05:38:10;;;;;;;77.88;12.23;;;8.50;99.90;;;;;;4991863;28;20052;-78
2023/12/11 05:40:35;;;;;;;71.53;12.20;;;8.50;99.90;;;;;;4997049;28;20503;-78
2023/12/11 05:43:01;;;;;;;55.88;11.07;;;8.50;99.90;;;;;;4992061;28;20164;-78
2023/12/11 05:45:27;;;;;;;68.00;11.27;;;8.50;99.90;;;;;;5011907;28;20033;-79
2023/12/11 05:47:52;;;;;;;55.97;10.02;;;8.50;99.90;;;;;;4995530;28;20143;-78
2023/12/11 05:50:18;;;;;;;54.30;9.65;;;8.40;99.90;;;;;;4979816;28;20064;-79
2023/12/11 05:52:44;;;;;;;53.25;9.45;;;8.40;99.90;;;;;;5005369;28;20092;-80
2023/12/11 05:55:10;;;;;;;62.75;11.45;;;8.40;99.90;;;;;;4994971;28;20043;-78
2023/12/11 05:57:36;;;;;;;63.70;11.15;;;8.40;99.90;;;;;;5022480;23;20057;-77
2023/12/11 06:00:02;;;;;;;56.65;10.50;;;8.50;99.90;;;;;;5013810;28;20119;-77
2023/12/11 06:02:29;;;;;;;66.75;10.88;;;8.40;99.90;;;;;;4999036;28;20037;-77
2023/12/11 06:04:55;;;;;;;62.05;11.80;;;8.50;99.90;;;;;;4988452;28;20033;-78
2023/12/11 06:07:21;;;;;;;55.85;10.32;;;8.50;99.90;;;;;;4978871;28;20084;-77
2023/12/11 06:09:47;;;;;;;58.63;10.05;;;8.50;99.90;;;;;;4995768;28;20073;-77
2023/12/11 06:12:12;;;;;;;50.60;9.38;;;8.50;99.90;;;;;;4980307;28;20060;-77
2023/12/11 06:14:45;;;;;;;58.72;10.60;;;8.50;99.90;;;;;;4980360;28;20508;-79
2023/12/11 06:17:11;;;;;;;;;;;8.50;99.90;;;;;;4982242;28;20041;-77
2023/12/11 06:19:42;;;;;;;50.78;9.60;;;8.50;99.90;;;;;;4982901;28;19944;-77
2023/12/11 06:22:08;;;;;;;60.35;11.15;;;8.40;99.90;;;;;;4994893;28;20041;-78
2023/12/11 06:24:34;;;;;;;53.85;9.38;;;8.40;99.90;;;;;;4992918;28;20092;-77
2023/12/11 06:27:00;;;;;;;51.95;8.90;;;8.40;99.90;;;;;;4978261;28;20124;-77
2023/12/11 06:29:26;;;;;;;52.25;10.57;;;8.40;99.90;;;;;;4977965;28;20133;-76
2023/12/11 06:31:51;;;;;;;53.88;10.18;;;8.40;99.90;;;;;;4992582;28;20496;-77
2023/12/11 06:34:17;;;;;;;49.63;8.93;;;8.40;99.90;;;;;;4989207;28;20480;-77
2023/12/11 06:36:43;;;;;;;57.88;10.02;;;8.40;99.90;;;;;;4982765;28;20049;-76
2023/12/11 06:39:08;;;;;;;53.65;9.70;;;8.40;99.90;;;;;;4985162;28;20106;-77
2023/12/11 06:41:37;;;;;;;49.83;9.32;;;8.40;99.90;;;;;;4978403;28;20176;-77
2023/12/11 06:44:03;;;;;;;49.35;9.65;;;8.40;99.90;;;;;;4977000;28;20066;-77
2023/12/11 06:46:29;;;;;;;51.40;9.45;;;8.40;99.90;;;;;;4989595;28;20081;-77
2023/12/11 06:48:57;;;;;;;54.13;9.75;;;8.40;99.90;;;;;;4994388;28;20038;-77
2023/12/11 06:51:27;;;;;;;50.63;9.88;;;8.40;99.90;;;;;;4994340;28;20046;-77
2023/12/11 06:53:58;;;;;;;47.72;9.27;;;8.40;99.90;;;;;;4985132;28;20064;-77
2023/12/11 06:56:30;;;;;;;45.35;8.90;;;8.40;99.90;;;;;;4986212;28;20049;-78
2023/12/11 06:58:56;;;;;;;65.80;10.05;;;8.50;99.90;;;;;;4989093;28;20049;-78
2023/12/11 07:01:29;;;;;;;70.18;11.20;;;8.40;99.90;;;;;;4985094;28;20062;-77
2023/12/11 07:03:55;;;;;;;65.63;10.48;;;8.50;99.90;;;;;;4991538;28;20079;-77
2023/12/11 07:06:20;;;;;;;58.10;9.98;;;8.50;99.90;;;;;;4977994;28;20077;-77
2023/12/11 07:08:46;;;;;;;57.88;9.82;;;8.50;99.90;;;;;;4976787;28;20081;-77
2023/12/11 07:11:12;;;;;;;51.20;10.05;;;8.50;99.90;;;;;;4991389;28;20095;-76
2023/12/11 07:13:40;;;;;;;60.63;9.88;;;8.50;99.90;;;;;;4970636;28;20037;-77
2023/12/11 07:16:06;;;;;;;63.20;10.35;;;8.50;99.90;;;;;;4985563;28;20294;-77
2023/12/11 07:18:33;;;;;;;52.03;9.77;;;8.50;99.90;;;;;;4994046;28;20041;-77
2023/12/11 07:21:04;;;;;;;53.85;9.80;;;8.50;99.90;;;;;;4997263;28;20056;-77
2023/12/11 07:23:30;;;;;;;44.60;8.55;;;8.50;99.90;;;;;;4997962;28;20045;-77
2023/12/11 07:25:59;;;;;;;50.05;9.88;;;8.50;99.90;;;;;;4972259;28;20087;-77
2023/12/11 07:28:24;;;;;;;52.90;10.15;;;8.50;99.90;;;;;;4994545;28;20416;-77
2023/12/11 07:30:50;;;;;;;47.83;9.75;;;8.50;99.90;;;;;;4989737;28;20067;-77
2023/12/11 07:33:18;;;;;;;43.38;9.80;;;8.50;99.90;;;;;;4994323;28;20065;-77
2023/12/11 07:35:43;;;;;;;43.33;8.75;;;8.50;99.90;;;;;;4985722;28;20042;-77
2023/12/11 07:38:09;;;;;;;41.65;10.48;;;8.50;99.90;;;;;;4990668;28;20052;-77
2023/12/11 07:40:35;;;;;;;41.30;10.00;;;8.50;99.90;;;;;;4980350;28;20052;-77
2023/12/11 07:43:05;;;;;;;39.38;10.10;;;8.50;99.90;;;;;;4994285;28;20088;-77
2023/12/11 07:45:30;;;;;;;34.80;10.13;;;8.50;99.90;;;;;;4991530;28;20038;-77
2023/12/11 07:47:56;;;;;;;36.72;10.05;;;8.50;99.90;;;;;;5010873;28;20407;-77
2023/12/11 07:50:22;;;;;;;38.47;9.73;;;8.50;99.90;;;;;;4994755;28;20077;-77
2023/12/11 07:52:48;;;;;;;35.75;8.82;;;8.50;99.90;;;;;;5009367;28;20038;-77
2023/12/11 07:55:14;;;;;;;31.27;9.43;;;8.50;99.90;;;;;;4994070;28;20038;-76
2023/12/11 07:57:39;;;;;;;31.25;8.40;;;8.50;99.90;;;;;;4991381;28;20045;-76
2023/12/11 08:00:06;;;;;;;37.20;9.00;;;8.50;99.90;;;;;;4994399;28;20404;-76
2023/12/11 08:02:33;;;;;;;32.38;8.60;;;8.50;99.90;;;;;;4993945;28;20108;-77
2023/12/11 08:04:59;;;;;;;28.00;8.52;;;8.50;99.90;;;;;;4994567;28;20497;-76
2023/12/11 08:07:25;;;;;;;35.05;11.13;;;8.50;99.90;;;;;;4989229;28;20046;-77
2023/12/11 08:09:52;;;;;;;34.20;10.77;;;8.50;99.90;;;;;;5005630;28;20480;-77
2023/12/11 08:12:17;;;;;;;32.33;10.27;;;8.50;99.90;;;;;;4998307;28;20050;-77
2023/12/11 08:14:43;;;;;;;30.15;9.88;;;8.60;99.90;;;;;;4998058;28;20092;-77
2023/12/11 08:17:10;;;;;;;30.38;9.48;;;8.50;99.90;;;;;;4997413;28;20080;-77
2023/12/11 08:19:36;;;;;;;38.72;11.68;;;8.50;99.90;;;;;;4996270;28;20045;-77
2023/12/11 08:22:03;;;;;;;27.38;8.88;;;8.50;99.90;;;;;;4997481;28;20076;-77
2023/12/11 08:24:28;;;;;;;35.60;9.30;;;8.50;99.90;;;;;;4997486;28;20135;-77
2023/12/11 08:26:55;;;;;;;33.97;10.55;;;8.50;99.90;;;;;;4997297;28;20115;-76
2023/12/11 08:29:21;;;;;;;25.23;9.23;;;8.50;99.90;;;;;;4996127;28;20048;-77
2023/12/11 08:31:47;;;;;;;27.40;8.65;;;8.60;99.90;;;;;;4995067;28;20048;-76
2023/12/11 08:34:13;;;;;;;24.27;8.38;;;8.50;99.90;;;;;;4991696;28;20407;-77
2023/12/11 08:36:39;;;;;;;25.48;8.57;;;8.50;99.90;;;;;;4996772;28;20125;-76
2023/12/11 08:39:05;;;;;;;35.85;9.63;;;8.50;99.90;;;;;;4997361;28;20046;-76
2023/12/11 08:41:33;;;;;;;25.52;8.55;;;8.50;99.90;;;;;;4997267;28;20078;-76
2023/12/11 08:43:59;;;;;;;32.05;10.10;;;8.50;99.90;;;;;;4996879;28;20431;-76
2023/12/11 08:46:24;;;;;;;43.75;11.43;;;8.50;99.90;;;;;;4993677;28;20046;-76
2023/12/11 08:48:50;;;;;;;40.03;10.77;;;8.50;99.90;;;;;;4996581;28;20088;-76
2023/12/11 08:51:22;;;;;;;40.10;10.80;;;8.50;99.90;;;;;;4996592;28;20541;-76
2023/12/11 08:53:47;;;;;;;35.70;9.80;;;8.60;99.90;;;;;;4996551;28;20045;-76
2023/12/11 08:56:17;;;;;;;44.30;11.35;;;8.50;99.90;;;;;;4995837;28;20048;-76
2023/12/11 08:58:43;;;;;;;44.42;10.63;;;8.60;99.90;;;;;;5009038;28;20053;-76
2023/12/11 09:01:09;;;;;;;51.50;10.85;;;8.60;99.90;;;;;;4996621;28;20534;-76
2023/12/11 09:03:37;;;;;;;50.13;11.18;;;8.60;99.90;;;;;;4996150;28;20064;-77
2023/12/11 09:06:08;;;;;;;49.97;11.55;;;8.60;99.90;;;;;;4989599;28;20049;-76
2023/12/11 09:08:34;;;;;;;49.35;11.43;;;8.60;99.90;;;;;;4989297;28;20042;-77
2023/12/11 09:11:05;;;;;;;43.20;10.40;;;8.70;99.90;;;;;;4996615;28;20042;-77
2023/12/11 09:13:31;;;;;;;53.10;11.90;;;8.70;99.90;;;;;;4996277;28;20069;-76
2023/12/11 09:15:57;;;;;;;52.80;11.45;;;8.80;99.90;;;;;;4995150;28;20073;-76
2023/12/11 09:18:23;;;;;;;36.15;9.98;;;8.80;99.90;;;;;;5013008;28;20073;-77
2023/12/11 09:20:49;;;;;;;44.67;10.15;;;8.80;99.90;;;;;;4984319;28;20523;-77
2023/12/11 09:23:15;;;;;;;40.00;9.90;;;8.80;99.90;;;;;;4995869;28;20042;-76
2023/12/11 09:25:41;;;;;;;40.22;8.85;;;8.90;99.90;;;;;;4996158;28;20111;-77
2023/12/11 09:28:09;;;;;;;46.17;9.90;;;8.80;99.90;;;;;;4995943;28;20045;-77
2023/12/11 09:30:38;;;;;;;30.48;7.28;;;8.80;99.90;;;;;;4995779;28;20046;-77
2023/12/11 09:33:04;;;;;;;37.85;7.38;;;8.90;99.90;;;;;;4995809;28;20037;-77
2023/12/11 09:35:29;;;;;;;31.92;6.60;;;8.90;99.90;;;;;;5005891;28;20563;-76
2023/12/11 09:37:55;;;;;;;26.63;5.80;;;8.90;99.90;;;;;;4991987;28;20042;-76
2023/12/11 09:40:21;;;;;;;33.58;6.45;;;8.90;99.90;;;;;;4984434;28;20093;-76
2023/12/11 09:42:50;;;;;;;27.48;6.05;;;9.00;99.90;;;;;;4979427;28;20148;-76
2023/12/11 09:45:21;;;;;;;27.40;5.80;;;8.90;99.90;;;;;;4995316;28;20077;-76
2023/12/11 09:47:52;;;;;;;29.80;5.68;;;9.00;99.90;;;;;;4979486;28;20493;-76
2023/12/11 09:50:19;;;;;;;24.60;5.22;;;9.00;99.90;;;;;;4979785;28;20132;-76
2023/12/11 09:52:49;;;;;;;29.33;5.03;;;9.00;99.90;;;;;;5009471;28;20441;-76
2023/12/11 09:55:15;;;;;;;24.48;5.38;;;9.00;99.90;;;;;;4995309;28;20129;-76
2023/12/11 09:57:42;;;;;;;23.88;4.95;;;9.10;99.90;;;;;;5011529;28;20120;-76
2023/12/11 10:00:10;;;;;;;30.58;5.32;;;9.10;99.90;;;;;;4995536;28;20118;-76
2023/12/11 10:02:39;;;;;;;29.13;4.72;;;9.10;99.90;;;;;;4995602;28;20049;-76
2023/12/11 10:05:09;;;;;;;32.20;5.10;;;9.10;99.90;;;;;;4994155;28;20139;-76
2023/12/11 10:07:36;;;;;;;33.72;5.32;;;9.10;99.90;;;;;;4988577;28;20038;-76
2023/12/11 10:10:21;;;;;;;32.97;5.60;;;9.10;99.90;;;;;;4995482;28;20073;-76
2023/12/11 10:12:47;;;;;;;33.58;5.65;;;9.10;99.90;;;;;;4994962;28;20088;-76
2023/12/11 10:15:19;;;;;;;30.35;5.20;;;9.10;99.90;;;;;;4994706;28;20037;-76
2023/12/11 10:17:44;;;;;;;30.10;5.63;;;9.10;99.90;;;;;;4995053;28;20045;-76
2023/12/11 10:20:17;;;;;;;29.17;5.72;;;9.10;99.90;;;;;;4987703;28;20507;-76
2023/12/11 10:22:43;;;;;;;34.00;5.45;;;9.10;99.90;;;;;;5007022;28;20404;-75
2023/12/11 10:25:09;;;;;;;34.45;5.50;;;9.00;99.90;;;;;;4988300;28;20046;-76
2023/12/11 10:27:34;;;;;;;34.58;5.40;;;9.00;99.90;;;;;;4994824;28;20048;-76
2023/12/11 10:30:11;;;;;;;31.60;5.53;;;8.90;99.90;;;;;;4989971;28;20124;-76
2023/12/11 10:32:37;;;;;;;29.20;4.80;;;8.90;99.90;;;;;;4994561;28;20038;-76
2023/12/11 10:35:05;;;;;;;30.10;5.30;;;8.90;99.90;;;;;;4994795;28;20424;-76
2023/12/11 10:37:31;;;;;;;34.80;5.75;;;8.90;99.90;;;;;;4992254;28;20037;-76
2023/12/11 10:39:57;;;;;;;31.73;5.20;;;8.80;99.90;;;;;;4978666;28;20046;-76
2023/12/11 10:42:24;;;;;;;30.70;6.22;;;8.80;99.90;;;;;;5011008;28;20049;-76
2023/12/11 10:44:53;;;;;;;29.98;5.47;;;8.80;99.90;;;;;;5010698;28;20038;-76
2023/12/11 10:47:20;;;;;;;30.10;5.55;;;8.80;99.90;;;;;;4992055;28;20074;-76
2023/12/11 10:49:45;;;;;;;28.85;4.85;;;8.80;99.90;;;;;;4994344;28;20076;-76
2023/12/11 10:52:11;;;;;;;32.05;5.28;;;8.90;99.90;;;;;;4994456;28;20077;-76
2023/12/11 10:54:38;;;;;;;24.65;4.43;;;8.90;99.90;;;;;;4988459;28;20132;-76
2023/12/11 10:57:08;;;;;;;22.58;3.97;;;8.90;99.90;;;;;;5010400;28;20038;-76
2023/12/11 10:59:35;;;;;;;22.95;4.82;;;8.90;99.90;;;;;;5010836;28;20045;-76
2023/12/11 11:02:02;;;;;;;25.80;4.43;;;9.00;99.90;;;;;;4992130;28;20042;-76
2023/12/11 11:04:33;;;;;;;21.67;5.00;;;9.00;99.90;;;;;;4988622;28;20037;-76
2023/12/11 11:07:08;;;;;;;27.80;5.68;;;9.10;99.90;;;;;;4998402;28;20065;-76
2023/12/11 11:09:54;;;;;;;32.15;7.25;;;9.20;99.90;;;;;;5001391;28;20374;-75
2023/12/11 11:12:42;;;;;;;33.20;6.60;;;9.20;99.90;;;;;;4994064;28;20092;-76
2023/12/11 11:15:11;;;;;;;41.15;7.95;;;9.10;99.90;;;;;;5010193;28;20061;-76
2023/12/11 11:18:02;;;;;;;39.38;7.57;;;9.00;99.90;;;;;;4993991;28;20097;-76
2023/12/11 11:20:32;;;;;;;35.00;7.07;;;9.00;99.90;;;;;;4991389;28;20128;-77
2023/12/11 11:23:16;;;;;;;34.72;7.45;;;8.90;99.90;;;;;;4974832;28;20385;-76
2023/12/11 11:25:51;;;;;;;35.03;8.10;;;8.90;99.90;;;;;;4974566;28;20038;-76
2023/12/11 11:28:50;;;;;;;38.92;7.57;;;8.90;99.90;;;;;;4974513;28;20042;-77
2023/12/11 11:31:15;;;;;;;31.00;7.25;;;8.80;99.90;;;;;;4977827;28;20668;-76
2023/12/11 11:33:52;;;;;;;27.10;6.20;;;8.90;99.90;;;;;;4987571;28;20034;-76
2023/12/11 11:36:20;;;;;;;26.08;6.10;;;8.80;99.90;;;;;;4994151;28;20041;-76
2023/12/11 11:38:57;;;;;;;25.63;5.78;;;8.80;99.90;;;;;;5012322;28;20037;-76
2023/12/11 11:41:25;;;;;;;31.10;5.93;;;8.80;99.90;;;;;;4997920;28;20415;-76
2023/12/11 11:44:04;;;;;;;34.30;6.50;;;8.70;99.90;;;;;;4997491;28;20104;-76
2023/12/11 11:46:51;;;;;;;22.08;5.65;;;8.80;99.90;;;;;;4993481;28;20048;-76
2023/12/11 11:49:34;;;;;;;22.88;5.07;;;8.80;99.90;;;;;;5003450;28;20052;-76
2023/12/11 11:52:06;;;;;;;15.02;3.78;;;8.80;99.90;;;;;;4997604;28;20045;-76
2023/12/11 11:54:35;;;;;;;22.90;4.15;;;8.80;99.90;;;;;;5013799;28;20069;-76
2023/12/11 11:57:01;;;;;;;22.67;4.95;;;8.70;99.90;;;;;;5007722;28;20049;-76
2023/12/11 11:59:28;;;;;;;16.77;4.18;;;8.80;99.90;;;;;;4993777;28;20116;-76
2023/12/11 12:01:55;;;;;;;18.77;4.00;;;8.80;99.90;;;;;;5014200;28;20129;-75
2023/12/11 12:04:39;;;;;;;19.20;4.22;;;8.90;99.90;;;;;;4997685;28;20433;-75
2023/12/11 12:07:05;;;;;;;16.05;3.35;;;8.90;99.90;;;;;;4997349;28;20495;-75
2023/12/11 12:09:32;;;;;;;14.13;3.38;;;8.90;99.90;;;;;;5013783;28;20092;-76
2023/12/11 12:11:59;;;;;;;17.92;3.22;;;8.90;99.90;;;;;;4993659;28;20124;-75
2023/12/11 12:14:28;;;;;;;13.32;3.00;;;9.00;99.90;;;;;;4996998;28;20034;-75
2023/12/11 12:16:55;;;;;;;13.63;2.80;;;9.00;99.90;;;;;;4997101;28;20092;-75
2023/12/11 12:19:34;;;;;;;9.82;2.50;;;9.30;99.90;;;;;;4997460;28;20489;-75
2023/12/11 12:22:01;;;;;;;15.07;2.83;;;9.70;99.90;;;;;;4997164;28;20045;-75
2023/12/11 12:24:27;;;;;;;11.18;2.40;;;10.10;99.90;;;;;;5012046;28;20050;-77
2023/12/11 12:27:01;;;;;;;10.82;2.35;;;10.40;99.90;;;;;;4990212;28;20046;-75
2023/12/11 12:29:30;;;;;;;12.82;2.30;;;10.50;99.90;;;;;;4997222;28;20249;-76
2023/12/11 12:31:57;;;;;;;9.43;2.13;;;10.60;99.90;;;;;;4996313;28;20097;-76
2023/12/11 12:34:24;;;;;;;6.90;1.67;;;10.80;99.90;;;;;;4992258;28;20045;-76
2023/12/11 12:36:53;;;;;;;12.93;1.83;;;11.00;99.90;;;;;;5013023;28;20569;-76
2023/12/11 12:39:20;;;;;;;9.15;1.67;;;10.90;99.90;;;;;;4996945;28;20034;-75
2023/12/11 12:41:49;;;;;;;7.40;1.73;;;11.10;99.90;;;;;;4979710;28;20034;-75